Time;durP1;ratioP1;P1;durP2;ratioP2;P2;SDS_P1;SDS_P2;PMS_P1;PMS_P2;Temp;Humidity;BMP_temperature;BMP_pressure;BME280_temperature;BME280_humidity;BME280_pressure;Samples;Min_cycle;Max_cycle;Signal;HPM_P1;HPM_P2
2023/02/16 00:01:45;;;;;;;167.57;53.90;;;;;;;6.85;100.00;101651.59;5082559;28;20028;-66
2023/02/16 00:04:20;;;;;;;167.63;52.22;;;;;;;6.97;100.00;101646.84;5081922;28;20028;-66
2023/02/16 00:06:46;;;;;;;174.32;53.17;;;;;;;6.91;100.00;101621.53;5099651;28;20024;-66
2023/02/16 00:09:11;;;;;;;160.82;50.95;;;;;;;7.03;100.00;101631.00;5100787;28;20024;-66
2023/02/16 00:14:23;;;;;;;137.27;48.53;;;;;;;6.95;100.00;101636.28;5101772;28;20043;-67
2023/02/16 00:16:49;;;;;;;123.43;45.33;;;;;;;6.99;100.00;101639.53;5101220;28;20082;-67
2023/02/16 00:19:14;;;;;;;125.35;46.50;;;;;;;7.02;100.00;101648.06;5101736;28;20051;-66
2023/02/16 00:21:40;;;;;;;133.20;47.95;;;;;;;7.07;100.00;101648.44;5101470;28;20103;-66
2023/02/16 00:24:05;;;;;;;153.95;50.90;;;;;;;7.07;100.00;101645.75;5103569;28;20028;-66
2023/02/16 00:26:33;;;;;;;161.30;52.92;;;;;;;7.10;100.00;101649.13;5101190;28;20028;-66
2023/02/16 00:28:58;;;;;;;171.20;55.75;;;;;;;7.14;100.00;101651.31;5094851;28;20024;-66
2023/02/16 00:31:26;;;;;;;178.80;57.72;;;;;;;7.18;100.00;101631.28;5084865;28;20584;-66
2023/02/16 00:33:52;;;;;;;188.65;60.25;;;;;;;7.16;100.00;101640.47;5092897;28;20043;-66
2023/02/16 00:36:18;;;;;;;187.23;59.67;;;;;;;7.16;100.00;101629.78;5083814;28;20043;-66
2023/02/16 00:38:43;;;;;;;169.52;57.63;;;;;;;7.25;100.00;101618.97;5099944;28;20091;-66
2023/02/16 00:44:11;;;;;;;173.50;57.45;;;;;;;7.22;100.00;101621.97;5101846;28;20077;-66
2023/02/16 00:46:37;;;;;;;161.60;57.60;;;;;;;7.32;100.00;101624.53;5102200;28;20055;-66
2023/02/16 00:49:02;;;;;;;169.55;60.97;;;;;;;7.21;100.00;101614.06;5084486;28;20043;-66
2023/02/16 00:51:28;;;;;;;164.85;57.10;;;;;;;7.35;100.00;101618.88;5102823;28;20020;-66
2023/02/16 00:53:54;;;;;;;179.65;58.40;;;;;;;7.41;100.00;101609.34;5101251;28;20096;-66
2023/02/16 00:56:20;;;;;;;188.07;62.08;;;;;;;7.37;100.00;101586.56;5102821;28;20020;-66
2023/02/16 00:58:47;;;;;;;191.98;62.97;;;;;;;7.37;100.00;101570.50;5085183;28;20103;-66
2023/02/16 01:01:16;;;;;;;193.20;62.13;;;;;;;7.38;100.00;101573.00;5101388;28;20060;-66
2023/02/16 01:03:42;;;;;;;185.98;62.63;;;;;;;7.24;100.00;101557.53;5102301;28;20048;-67
2023/02/16 01:11:50;;;;;;;175.48;61.38;;;;;;;7.31;100.00;101563.94;5102674;28;20027;-66
2023/02/16 01:14:15;;;;;;;175.25;61.33;;;;;;;7.37;100.00;101583.88;5084030;28;20027;-66
2023/02/16 01:16:42;;;;;;;193.02;64.25;;;;;;;7.32;100.00;101567.44;5102362;28;20105;-66
2023/02/16 01:19:10;;;;;;;190.65;63.08;;;;;;;7.48;100.00;101583.59;5102854;28;20028;-66
2023/02/16 01:21:35;;;;;;;187.40;63.47;;;;;;;7.42;100.00;101582.41;5102776;28;20039;-66
2023/02/16 01:24:01;;;;;;;184.63;63.22;;;;;;;7.46;100.00;101575.75;5101954;28;20027;-66
2023/02/16 01:26:28;;;;;;;179.68;58.42;;;;;;;7.30;100.00;101563.09;5100298;28;20474;-66
2023/02/16 01:28:53;;;;;;;182.73;62.25;;;;;;;7.42;100.00;101571.72;5101302;28;20130;-66
2023/02/16 01:31:19;;;;;;;188.90;63.88;;;;;;;7.45;100.00;101566.03;5099485;28;20031;-67
2023/02/16 01:33:44;;;;;;;186.82;65.43;;;;;;;7.47;100.00;101564.03;5101038;28;20440;-66
2023/02/16 01:36:22;;;;;;;192.60;65.43;;;;;;;7.51;100.00;101561.84;5102172;28;20036;-66
2023/02/16 01:38:47;;;;;;;196.05;67.85;;;;;;;7.49;100.00;101564.72;5101190;28;20024;-66
2023/02/16 01:41:21;;;;;;;188.95;66.70;;;;;;;7.46;100.00;101562.34;5100786;28;20075;-66
2023/02/16 01:44:08;;;;;;;189.15;65.65;;;;;;;7.50;100.00;101565.53;5099810;28;20032;-66
2023/02/16 01:46:49;;;;;;;189.95;66.68;;;;;;;7.46;100.00;101566.88;5100357;28;20028;-66
2023/02/16 01:49:17;;;;;;;190.88;66.65;;;;;;;7.48;100.00;101563.03;5100635;28;20131;-66
2023/02/16 01:52:01;;;;;;;186.82;66.70;;;;;;;7.50;100.00;101569.06;5100375;28;20059;-66
2023/02/16 01:55:17;;;;;;;194.48;68.45;;;;;;;7.52;100.00;101568.91;5096966;28;20028;-66
2023/02/16 01:57:50;;;;;;;195.02;69.32;;;;;;;7.55;100.00;101565.91;5052462;28;20384;-66
2023/02/16 02:00:29;;;;;;;195.50;68.03;;;;;;;7.44;100.00;101561.66;5099154;28;20020;-66
2023/02/16 02:05:48;;;;;;;196.75;68.18;;;;;;;7.44;100.00;101548.28;5098730;28;20108;-67
2023/02/16 02:08:31;;;;;;;202.07;69.55;;;;;;;7.36;100.00;101537.53;5099802;28;20024;-66
2023/02/16 02:11:23;;;;;;;198.02;69.53;;;;;;;7.44;100.00;101544.75;5098283;28;20047;-66
2023/02/16 02:14:01;;;;;;;206.07;68.65;;;;;;;7.48;100.00;101549.66;5098329;28;20050;-66
2023/02/16 02:16:27;;;;;;;203.40;70.25;;;;;;;7.51;100.00;101541.28;5098538;28;20494;-66
2023/02/16 02:18:53;;;;;;;215.73;71.45;;;;;;;7.52;100.00;101540.28;5102144;28;20035;-67
2023/02/16 02:24:27;;;;;;;211.57;70.70;;;;;;;7.55;100.00;101531.09;5104844;28;20130;-66
2023/02/16 02:27:10;;;;;;;212.57;71.60;;;;;;;7.53;100.00;101520.53;5106139;28;20087;-66
2023/02/16 02:29:50;;;;;;;210.35;72.13;;;;;;;7.56;100.00;101516.69;5105270;28;20036;-66
2023/02/16 02:32:22;;;;;;;210.60;72.80;;;;;;;7.53;100.00;101515.19;5106245;28;20027;-66
2023/02/16 02:35:08;;;;;;;215.75;73.20;;;;;;;7.59;100.00;101512.88;5104741;28;20028;-66
2023/02/16 02:37:55;;;;;;;211.35;72.85;;;;;;;7.49;100.00;101510.31;5104637;28;20020;-66
2023/02/16 02:40:34;;;;;;;217.82;73.28;;;;;;;7.56;100.00;101508.66;5104093;28;20441;-66
2023/02/16 02:43:22;;;;;;;223.50;75.72;;;;;;;7.49;100.00;101499.59;5104622;28;20031;-66
2023/02/16 02:46:10;;;;;;;238.30;78.88;;;;;;;7.52;100.00;101508.16;5100695;28;20054;-66
2023/02/16 02:48:35;;;;;;;233.15;77.97;;;;;;;7.59;100.00;101510.19;5090343;28;20036;-66
2023/02/16 03:00:52;;;;;;;221.53;73.17;;;;;;;7.29;100.00;101478.44;5065839;28;20035;-66
2023/02/16 03:03:36;;;;;;;227.60;76.22;;;;;;;7.50;100.00;101496.75;5100636;28;20483;-66
2023/02/16 03:06:08;;;;;;;233.52;79.05;;;;;;;7.48;100.00;101472.00;5103134;28;20024;-67
2023/02/16 03:08:36;;;;;;;231.02;78.97;;;;;;;7.54;100.00;101479.34;5100498;28;20030;-66
2023/02/16 03:14:01;;;;;;;237.68;79.47;;;;;;;7.60;100.00;101479.72;5103311;28;20053;-66
2023/02/16 03:16:35;;;;;;;246.93;79.75;;;;;;;7.52;100.00;101461.78;5103189;28;20036;-66
2023/02/16 03:30:10;;;;;;;247.23;79.25;;;;;;;7.66;100.00;101437.03;5101817;28;20042;-66
2023/02/16 03:32:36;;;;;;;249.15;80.53;;;;;;;7.51;100.00;101411.91;5101558;28;20043;-66
2023/02/16 03:35:02;;;;;;;242.93;80.18;;;;;;;7.64;100.00;101433.69;5098508;28;20116;-66
2023/02/16 03:37:28;;;;;;;248.57;80.75;;;;;;;7.56;100.00;101403.38;5085207;28;20451;-66
2023/02/16 03:42:38;;;;;;;253.75;84.00;;;;;;;7.62;100.00;101422.31;5100701;28;20035;-66
2023/02/16 03:45:03;;;;;;;248.60;80.38;;;;;;;7.70;100.00;101426.84;5083634;28;20032;-66
2023/02/16 03:47:29;;;;;;;262.70;84.38;;;;;;;7.57;100.00;101389.81;5101544;28;20099;-66
2023/02/16 03:49:54;;;;;;;259.40;85.40;;;;;;;7.68;100.00;101412.75;5101754;28;20117;-66
2023/02/16 03:52:20;;;;;;;246.45;83.55;;;;;;;7.61;100.00;101404.53;5099924;28;20087;-66
2023/02/16 03:54:45;;;;;;;256.73;85.30;;;;;;;7.68;100.00;101402.91;5097311;28;20028;-67
2023/02/16 03:57:10;;;;;;;248.10;82.10;;;;;;;7.61;100.00;101401.88;5095104;28;20027;-66
2023/02/16 03:59:36;;;;;;;251.48;83.95;;;;;;;7.69;100.00;101414.47;5097673;28;20024;-66
2023/02/16 04:02:01;;;;;;;255.77;84.45;;;;;;;7.67;100.00;101411.09;5115703;28;20089;-66
2023/02/16 04:04:27;;;;;;;241.30;81.47;;;;;;;7.70;100.00;101402.72;5099130;28;20055;-66
2023/02/16 04:06:52;;;;;;;240.80;81.93;;;;;;;7.68;100.00;101407.41;5099066;28;20471;-67
2023/02/16 04:09:17;;;;;;;245.88;84.85;;;;;;;7.71;100.00;101407.91;5098895;28;20048;-67
2023/02/16 04:14:27;;;;;;;253.95;86.70;;;;;;;7.64;100.00;101412.25;5101129;28;20058;-67
2023/02/16 04:16:54;;;;;;;245.25;84.20;;;;;;;7.63;100.00;101421.31;5083056;28;20086;-66
2023/02/16 04:19:22;;;;;;;255.93;85.57;;;;;;;7.55;100.00;101407.91;5101839;28;20504;-66
2023/02/16 04:21:48;;;;;;;248.88;86.13;;;;;;;7.54;100.00;101401.69;5101188;28;20035;-66
2023/02/16 04:24:13;;;;;;;255.18;85.85;;;;;;;7.69;100.00;101417.97;5083559;28;20036;-66
2023/02/16 04:26:39;;;;;;;237.13;84.65;;;;;;;7.67;100.00;101413.78;5101431;28;20478;-66
2023/02/16 04:29:04;;;;;;;251.38;84.45;;;;;;;7.57;100.00;101405.06;5101826;28;20048;-66
2023/02/16 04:31:30;;;;;;;242.65;85.05;;;;;;;7.62;100.00;101390.16;5100617;28;20419;-66
2023/02/16 04:33:55;;;;;;;259.48;86.22;;;;;;;7.69;100.00;101398.38;5099343;28;20115;-66
2023/02/16 04:36:20;;;;;;;249.73;86.00;;;;;;;7.48;100.00;101374.72;5082248;28;20080;-66
2023/02/16 04:38:46;;;;;;;256.23;85.03;;;;;;;7.46;100.00;101366.88;5082284;28;20028;-66
2023/02/16 04:41:11;;;;;;;254.57;85.15;;;;;;;7.62;100.00;101386.66;5098268;28;20035;-66
2023/02/16 04:43:36;;;;;;;253.35;85.50;;;;;;;7.56;100.00;101371.25;5099784;28;20032;-66
2023/02/16 04:46:02;;;;;;;255.25;87.72;;;;;;;7.53;100.00;101367.06;5100478;28;20440;-66
2023/02/16 04:48:27;;;;;;;244.63;85.00;;;;;;;7.62;100.00;101389.34;5100597;28;20039;-66
2023/02/16 04:50:53;;;;;;;255.48;86.97;;;;;;;7.69;100.00;101391.19;5100067;28;20020;-66
2023/02/16 04:53:18;;;;;;;248.50;88.95;;;;;;;7.63;100.00;101396.38;5100163;28;20047;-66
2023/02/16 04:55:48;;;;;;;246.27;85.95;;;;;;;7.66;100.00;101396.03;5099840;28;20114;-66
2023/02/16 04:58:15;;;;;;;246.52;86.05;;;;;;;7.68;100.00;101396.69;5100171;28;20042;-66
2023/02/16 05:00:40;;;;;;;252.57;86.38;;;;;;;7.60;100.00;101394.00;5099354;28;20039;-66
2023/02/16 05:03:06;;;;;;;248.23;87.18;;;;;;;7.63;100.00;101399.88;5098005;28;20021;-67
2023/02/16 05:05:33;;;;;;;253.93;88.55;;;;;;;7.66;100.00;101394.19;5094309;28;20063;-66
2023/02/16 05:08:00;;;;;;;239.02;86.70;;;;;;;7.52;100.00;101370.75;5100047;28;20032;-67
2023/02/16 05:10:25;;;;;;;258.15;91.22;;;;;;;7.64;100.00;101390.81;5098581;28;20111;-67
2023/02/16 05:15:35;;;;;;;241.98;89.15;;;;;;;7.63;100.00;101407.06;5079997;28;20386;-67
2023/02/16 05:18:00;;;;;;;255.07;90.32;;;;;;;7.73;100.00;101410.44;5096838;28;20131;-69
2023/02/16 05:21:29;;;;;;;255.80;91.55;;;;;;;7.76;100.00;101412.78;5099388;28;20107;-68
2023/02/16 05:23:12;;;;;;;259.65;90.53;;;;;;;7.74;100.00;101404.06;5112138;28;20032;-68
2023/02/16 05:25:37;;;;;;;266.00;91.15;;;;;;;7.66;100.00;101394.19;5097890;28;20032;-67
2023/02/16 05:28:03;;;;;;;258.27;89.78;;;;;;;7.66;100.00;101371.94;5098965;28;20039;-67
2023/02/16 05:30:29;;;;;;;257.02;90.20;;;;;;;7.72;100.00;101401.56;5081119;28;20019;-68
2023/02/16 05:32:54;;;;;;;265.60;89.82;;;;;;;7.67;100.00;101387.81;5099461;28;20020;-69
2023/02/16 05:35:19;;;;;;;271.15;92.15;;;;;;;7.70;100.00;101389.34;5100363;28;20467;-67
2023/02/16 05:37:45;;;;;;;266.27;91.80;;;;;;;7.65;100.00;101384.50;5067615;28;20031;-68
2023/02/16 05:40:11;;;;;;;272.63;95.47;;;;;;;7.64;100.00;101403.38;5081535;28;20059;-67
2023/02/16 05:42:36;;;;;;;273.40;93.40;;;;;;;7.63;100.00;101394.53;5096744;28;20462;-68
2023/02/16 05:45:02;;;;;;;281.33;93.38;;;;;;;7.65;100.00;101387.16;5097166;28;20137;-68
2023/02/16 05:47:27;;;;;;;286.45;93.97;;;;;;;7.70;100.00;101389.34;5097619;28;20410;-69
2023/02/16 05:49:53;;;;;;;296.17;97.57;;;;;;;7.63;100.00;101382.97;5097040;28;20036;-68
2023/02/16 05:52:18;;;;;;;288.52;97.20;;;;;;;7.61;100.00;101390.31;5057631;28;20032;-68
2023/02/16 05:54:44;;;;;;;313.52;98.30;;;;;;;7.62;100.00;101386.66;5080395;28;20032;-68
2023/02/16 05:57:09;;;;;;;310.20;98.75;;;;;;;7.65;100.00;101392.53;5091122;28;20063;-68
2023/02/16 05:59:35;;;;;;;298.95;96.65;;;;;;;7.68;100.00;101385.97;5101799;28;20028;-68
2023/02/16 06:02:00;;;;;;;308.00;95.25;;;;;;;7.68;100.00;101383.28;5101833;28;20036;-68
2023/02/16 06:04:27;;;;;;;309.23;98.55;;;;;;;7.63;100.00;101382.97;5102967;28;20080;-68
2023/02/16 06:06:53;;;;;;;314.58;100.47;;;;;;;7.69;100.00;101387.66;5099951;28;20084;-67
2023/02/16 06:09:18;;;;;;;325.80;101.00;;;;;;;7.73;100.00;101379.13;5101686;28;20028;-69
2023/02/16 06:11:44;;;;;;;336.70;99.38;;;;;;;7.69;100.00;101385.00;5100566;28;20054;-68
2023/02/16 06:14:13;;;;;;;335.67;99.35;;;;;;;7.72;100.00;101382.81;5101162;28;20078;-68
2023/02/16 06:16:41;;;;;;;344.10;101.53;;;;;;;7.74;100.00;101374.59;5100243;28;20095;-68
2023/02/16 06:19:07;;;;;;;350.05;104.80;;;;;;;7.68;100.00;101381.47;5102175;28;20053;-68
2023/02/16 06:21:32;;;;;;;381.83;105.63;;;;;;;7.66;100.00;101377.28;5102483;28;20344;-68
2023/02/16 06:23:58;;;;;;;371.80;105.45;;;;;;;7.70;100.00;101387.50;5101269;28;20032;-68
2023/02/16 06:26:24;;;;;;;372.45;104.95;;;;;;;7.71;100.00;101372.25;5102079;28;20031;-68
2023/02/16 06:28:49;;;;;;;381.83;105.93;;;;;;;7.71;100.00;101372.25;5104200;28;20169;-68
2023/02/16 06:31:15;;;;;;;390.77;107.20;;;;;;;7.73;100.00;101383.66;5102670;28;20024;-68
2023/02/16 06:33:41;;;;;;;401.63;107.88;;;;;;;7.75;100.00;101370.94;5110138;28;20016;-68
2023/02/16 06:36:07;;;;;;;369.50;101.38;;;;;;;7.73;100.00;101367.56;5114874;28;20016;-68
2023/02/16 06:38:32;;;;;;;412.00;108.88;;;;;;;7.77;100.00;101366.22;5114735;28;20018;-69
2023/02/16 06:40:58;;;;;;;373.75;105.97;;;;;;;7.80;100.00;101365.06;5096645;28;20031;-68
2023/02/16 06:43:23;;;;;;;390.90;110.68;;;;;;;7.76;100.00;101365.41;5114144;28;20019;-68
2023/02/16 06:45:49;;;;;;;371.88;107.43;;;;;;;7.70;100.00;101362.53;5109961;28;20051;-68
2023/02/16 06:48:14;;;;;;;398.42;106.05;;;;;;;7.69;100.00;101369.75;5103881;28;20091;-68
2023/02/16 06:50:40;;;;;;;395.73;109.47;;;;;;;7.81;100.00;101375.59;5103031;28;20024;-68
2023/02/16 06:53:05;;;;;;;419.55;110.82;;;;;;;7.78;100.00;101367.91;5086108;28;20087;-68
2023/02/16 06:55:35;;;;;;;418.30;109.50;;;;;;;7.75;100.00;101376.28;5087032;28;20083;-68
2023/02/16 06:58:04;;;;;;;430.17;115.95;;;;;;;7.82;100.00;101376.47;5102863;28;20437;-68
2023/02/16 07:00:30;;;;;;;451.92;116.05;;;;;;;7.81;100.00;101378.28;5101648;28;20024;-68
2023/02/16 07:02:55;;;;;;;452.80;114.63;;;;;;;7.82;100.00;101373.78;5104039;28;20028;-67
2023/02/16 07:05:21;;;;;;;459.92;111.43;;;;;;;7.64;100.00;101349.81;5086024;28;20036;-67
2023/02/16 07:07:47;;;;;;;493.27;116.88;;;;;;;7.84;100.00;101374.44;5102714;28;20036;-68
2023/02/16 07:10:13;;;;;;;508.90;117.72;;;;;;;7.86;100.00;101377.81;5102402;28;20042;-68
2023/02/16 07:12:39;;;;;;;517.70;117.05;;;;;;;7.88;100.00;101368.59;5103188;28;20039;-68
2023/02/16 07:15:04;;;;;;;466.48;115.35;;;;;;;7.48;100.00;101308.66;5102884;28;20024;-68
2023/02/16 07:17:30;;;;;;;489.80;114.57;;;;;;;7.85;100.00;101371.59;5084193;28;20144;-68
2023/02/16 07:19:55;;;;;;;499.98;118.38;;;;;;;7.85;100.00;101376.13;5082394;28;20500;-69
2023/02/16 07:22:21;;;;;;;508.35;120.55;;;;;;;7.89;100.00;101378.31;5099321;28;20156;-69
2023/02/16 07:24:46;;;;;;;517.67;120.13;;;;;;;7.59;100.00;101334.25;5099019;28;20109;-69
2023/02/16 07:27:12;;;;;;;509.35;120.50;;;;;;;7.89;100.00;101372.94;5081927;28;20055;-69
2023/02/16 07:29:38;;;;;;;541.88;119.38;;;;;;;7.92;100.00;101374.44;5099147;28;20028;-68
2023/02/16 07:32:03;;;;;;;542.85;124.45;;;;;;;7.92;100.00;101380.66;5100034;28;20048;-68
2023/02/16 07:34:29;;;;;;;537.33;121.72;;;;;;;7.94;100.00;101377.78;5101251;28;20096;-68
2023/02/16 07:36:54;;;;;;;566.13;122.75;;;;;;;7.97;100.00;101374.78;5102152;28;20020;-68
2023/02/16 07:39:20;;;;;;;520.78;121.45;;;;;;;8.03;100.00;101378.63;5101593;28;20030;-68
2023/02/16 07:41:45;;;;;;;490.73;121.07;;;;;;;8.03;100.00;101378.63;5101449;28;20070;-68
2023/02/16 07:44:11;;;;;;;536.00;119.13;;;;;;;7.88;100.00;101360.56;5099743;28;20043;-68
2023/02/16 07:46:37;;;;;;;531.63;122.25;;;;;;;7.93;100.00;101366.22;5099298;28;20390;-69
2023/02/16 07:49:03;;;;;;;558.78;126.22;;;;;;;8.07;100.00;101388.00;5099483;28;20036;-68
2023/02/16 07:51:29;;;;;;;550.25;125.28;;;;;;;8.11;100.00;101390.19;5099748;28;20065;-69
2023/02/16 07:53:56;;;;;;;560.53;122.97;;;;;;;8.09;100.00;101380.63;5100702;28;20544;-68
2023/02/16 07:56:27;;;;;;;499.38;123.22;;;;;;;8.13;100.00;101392.69;5100515;28;20089;-68
2023/02/16 07:58:54;;;;;;;562.92;123.70;;;;;;;8.18;100.00;101385.84;5100982;28;20024;-68
2023/02/16 08:01:20;;;;;;;586.38;126.00;;;;;;;8.22;100.00;101383.66;5099401;28;20039;-68
2023/02/16 08:03:45;;;;;;;550.45;124.75;;;;;;;8.27;100.00;101375.91;5099108;28;20043;-68
2023/02/16 08:06:12;;;;;;;523.00;122.07;;;;;;;8.32;100.00;101388.81;5099239;28;20028;-68
2023/02/16 08:08:37;;;;;;;550.83;119.57;;;;;;;8.33;100.00;101390.50;5098866;28;20052;-68
2023/02/16 08:11:21;;;;;;;506.92;118.13;;;;;;;8.37;100.00;101379.25;5100379;28;20035;-68
2023/02/16 08:13:47;;;;;;;464.83;113.47;;;;;;;8.26;100.00;101363.53;5100775;28;20032;-68
2023/02/16 08:16:19;;;;;;;525.25;117.20;;;;;;;8.43;100.00;101381.28;5098720;28;20035;-69
2023/02/16 08:18:44;;;;;;;460.98;113.35;;;;;;;8.39;100.00;101379.13;5098332;28;20118;-69
2023/02/16 08:21:15;;;;;;;472.25;113.65;;;;;;;8.44;100.00;101384.78;5099521;28;20040;-68
2023/02/16 08:23:42;;;;;;;478.95;111.95;;;;;;;8.42;100.00;101384.97;5099585;28;20059;-69
2023/02/16 08:26:11;;;;;;;492.65;113.90;;;;;;;8.53;100.00;101391.00;5098921;28;20032;-68
2023/02/16 08:28:37;;;;;;;523.72;115.18;;;;;;;8.57;100.00;101400.34;5098125;28;20024;-68
2023/02/16 08:31:05;;;;;;;495.42;113.40;;;;;;;8.59;100.00;101390.31;5098061;28;20016;-68
2023/02/16 08:33:33;;;;;;;491.17;113.97;;;;;;;8.59;100.00;101390.31;5097825;28;20120;-69
2023/02/16 08:35:58;;;;;;;457.85;110.53;;;;;;;8.63;100.00;101389.78;5098135;28;20039;-69
2023/02/16 08:38:24;;;;;;;472.92;111.63;;;;;;;8.67;100.00;101390.28;5099056;28;20032;-68
2023/02/16 08:40:50;;;;;;;495.77;112.10;;;;;;;8.69;100.00;101390.94;5098972;28;20028;-68
2023/02/16 08:43:15;;;;;;;474.85;110.47;;;;;;;8.74;100.00;101388.59;5099365;28;20024;-68
2023/02/16 08:45:47;;;;;;;471.63;109.07;;;;;;;8.67;100.00;101369.63;5097644;28;20032;-68
2023/02/16 08:48:13;;;;;;;446.60;106.60;;;;;;;8.87;100.00;101388.88;5098207;28;20020;-68
2023/02/16 08:50:45;;;;;;;462.42;107.45;;;;;;;8.90;100.00;101382.31;5098404;28;20033;-68
2023/02/16 08:53:12;;;;;;;445.08;107.40;;;;;;;8.98;100.00;101386.81;5095811;28;20051;-69
2023/02/16 08:55:38;;;;;;;463.73;106.45;;;;;;;9.02;100.00;101375.56;5100940;28;20099;-67
2023/02/16 08:58:04;;;;;;;437.00;102.07;;;;;;;9.14;100.00;101389.44;5083489;28;20498;-68
2023/02/16 09:00:33;;;;;;;446.30;106.25;;;;;;;9.17;100.00;101381.00;5101354;28;20034;-68
2023/02/16 09:02:59;;;;;;;452.55;101.85;;;;;;;9.19;100.00;101387.06;5101700;28;20024;-68
2023/02/16 09:05:24;;;;;;;447.35;104.13;;;;;;;9.26;100.00;101384.50;5100195;28;20096;-68
2023/02/16 09:07:51;;;;;;;478.48;107.07;;;;;;;9.28;100.00;101383.31;5101602;28;20059;-69
2023/02/16 09:10:17;;;;;;;453.00;101.45;;;;;;;9.31;100.00;101379.44;5101831;28;20027;-68
2023/02/16 09:12:47;;;;;;;412.60;99.35;;;;;;;9.27;100.00;101364.69;5100489;28;20032;-68
2023/02/16 09:15:14;;;;;;;423.98;97.88;;;;;;;9.42;100.00;101376.34;5101755;28;20055;-68
2023/02/16 09:17:41;;;;;;;408.80;97.68;;;;;;;9.48;100.00;101386.38;5100223;28;20125;-68
2023/02/16 09:20:07;;;;;;;424.50;97.70;;;;;;;9.52;100.00;101376.94;5100027;28;20024;-69
2023/02/16 09:22:33;;;;;;;430.33;98.72;;;;;;;9.56;100.00;101393.53;5083179;28;20099;-68
2023/02/16 09:24:58;;;;;;;379.38;92.53;;;;;;;9.55;100.00;101386.50;5100852;28;20051;-69
2023/02/16 09:27:24;;;;;;;405.20;93.10;;;;;;;9.64;100.00;101390.81;5100968;28;20111;-68
2023/02/16 09:29:50;;;;;;;411.02;94.05;;;;;;;9.56;100.00;101374.75;5100551;28;20039;-68
2023/02/16 09:32:16;;;;;;;423.15;94.68;;;;;;;9.69;100.00;101388.41;5084191;28;20016;-68
2023/02/16 09:34:43;;;;;;;387.50;91.32;;;;;;;9.64;100.00;101391.66;5101996;28;20047;-68
2023/02/16 09:37:09;;;;;;;427.25;93.47;;;;;;;9.65;100.00;101397.84;5102403;28;20020;-68
2023/02/16 09:39:35;;;;;;;467.25;96.93;;;;;;;9.49;100.00;101384.53;5083198;28;20490;-68
2023/02/16 09:42:01;;;;;;;382.40;93.72;;;;;;;9.51;100.00;101390.56;5100506;28;20383;-69
2023/02/16 09:44:26;;;;;;;415.27;95.15;;;;;;;9.57;100.00;101400.59;5098751;28;20134;-69
2023/02/16 09:46:55;;;;;;;446.73;95.47;;;;;;;9.54;100.00;101395.59;5099416;28;20034;-68
2023/02/16 09:49:21;;;;;;;430.67;95.75;;;;;;;9.53;100.00;101400.09;5097854;28;20056;-68
2023/02/16 09:51:49;;;;;;;426.90;96.45;;;;;;;9.49;100.00;101380.00;5099997;28;20031;-68
2023/02/16 09:54:38;;;;;;;384.02;93.55;;;;;;;9.61;100.00;101388.50;5101069;28;20034;-69
2023/02/16 09:57:26;;;;;;;434.38;95.53;;;;;;;9.65;100.00;101389.78;5100421;28;20471;-68
2023/02/16 10:00:22;;;;;;;404.83;93.60;;;;;;;9.64;100.00;101385.44;5067944;28;20040;-69
2023/02/16 10:03:41;;;;;;;390.95;95.57;;;;;;;9.61;100.00;101397.38;5091465;28;20040;-69
2023/02/16 10:06:13;;;;;;;340.90;94.10;;;;;;;9.59;100.00;101401.25;5019366;28;20475;-68
2023/02/16 10:08:41;;;;;;;314.58;88.38;;;;;;;9.53;100.00;101399.28;5087300;28;20031;-69
2023/02/16 10:14:05;;;;;;;310.42;88.78;;;;;;;9.56;100.00;101398.91;5101641;28;20038;-69
2023/02/16 10:16:38;;;;;;;295.83;88.63;;;;;;;9.44;100.00;101373.47;5098950;28;20454;-69
2023/02/16 10:19:20;;;;;;;273.53;81.43;;;;;;;9.48;100.00;101390.94;5094506;28;20028;-69
2023/02/16 10:21:51;;;;;;;283.83;84.05;;;;;;;9.55;100.00;101400.78;5098480;28;20100;-69
2023/02/16 10:24:17;;;;;;;280.60;77.80;;;;;;;9.43;100.00;101399.50;5099765;28;20035;-68
2023/02/16 10:26:47;;;;;;;284.17;80.22;;;;;;;9.50;100.00;101397.78;5099383;28;20389;-68
2023/02/16 10:29:17;;;;;;;304.38;85.57;;;;;;;9.48;100.00;101401.69;5102104;28;20027;-69
2023/02/16 10:32:11;;;;;;;282.65;80.13;;;;;;;9.36;100.00;101393.16;5102467;28;20050;-69
2023/02/16 10:34:39;;;;;;;262.42;78.57;;;;;;;9.31;100.00;101401.75;5101493;28;20051;-68
2023/02/16 10:37:20;;;;;;;256.83;74.07;;;;;;;9.42;100.00;101400.53;5103450;28;20107;-69
2023/02/16 10:40:04;;;;;;;258.63;75.78;;;;;;;9.44;100.00;101397.63;5101296;28;20024;-68
2023/02/16 10:43:08;;;;;;;238.55;70.68;;;;;;;9.51;100.00;101404.84;5103007;28;20044;-69
2023/02/16 10:45:42;;;;;;;222.75;68.93;;;;;;;9.76;100.00;101407.34;5072317;28;20061;-68
2023/02/16 10:48:09;;;;;;;215.68;66.30;;;;;;;9.71;100.00;101396.31;5101233;28;20027;-69
2023/02/16 10:50:42;;;;;;;200.75;62.63;;;;;;;9.85;100.00;101387.47;5102851;28;20059;-68
2023/02/16 10:53:20;;;;;;;188.57;61.13;;;;;;;10.05;100.00;101390.50;5100981;28;20028;-69
2023/02/16 10:55:45;;;;;;;195.13;57.17;;;;;;;10.10;100.00;101372.81;5101643;28;20085;-69
2023/02/16 10:58:25;;;;;;;174.63;58.13;;;;;;;10.39;100.00;101378.44;5101258;28;20028;-68
2023/02/16 11:01:09;;;;;;;165.02;57.75;;;;;;;10.43;100.00;101374.34;5100886;28;20032;-68
2023/02/16 11:03:43;;;;;;;159.30;57.13;;;;;;;10.29;100.00;101370.63;5103022;28;20106;-69
2023/02/16 11:06:18;;;;;;;162.40;55.00;;;;;;;10.33;100.00;101386.25;5099906;28;20371;-68
2023/02/16 11:08:56;;;;;;;165.07;60.33;;;;;;;10.28;100.00;101383.25;5100181;28;20020;-68
2023/02/16 11:11:33;;;;;;;153.40;55.90;;;;;;;10.20;100.00;101383.31;5101074;28;20152;-69
2023/02/16 11:14:03;;;;;;;159.30;56.15;;;;;;;10.24;100.00;101392.69;5103395;28;20035;-69
2023/02/16 11:16:28;;;;;;;153.05;56.22;;;;;;;10.25;100.00;101406.97;5099178;28;20032;-69
2023/02/16 11:18:56;;;;;;;147.45;54.58;;;;;;;10.37;100.00;101402.84;5098878;28;20028;-68
2023/02/16 11:21:42;;;;;;;149.00;55.92;;;;;;;10.53;100.00;101404.53;5101638;28;20032;-69
2023/02/16 11:24:11;;;;;;;148.45;54.47;;;;;;;10.48;100.00;101410.47;5099065;28;20039;-69
2023/02/16 11:26:37;;;;;;;158.40;56.00;;;;;;;10.55;100.00;101410.56;5101170;28;20024;-69
2023/02/16 11:29:16;;;;;;;151.88;55.13;;;;;;;10.60;100.00;101413.56;5101229;28;20035;-72
2023/02/16 11:31:42;;;;;;;144.05;53.88;;;;;;;10.58;100.00;101412.88;5102282;28;20020;-69
2023/02/16 11:34:32;;;;;;;136.93;53.75;;;;;;;10.51;100.00;101415.47;5100265;28;20039;-69
2023/02/16 11:37:07;;;;;;;130.13;53.10;;;;;;;10.39;100.00;101413.41;5099950;28;20024;-68
2023/02/16 11:39:38;;;;;;;;;;;;;;;10.36;100.00;101419.97;5100757;28;20026;-69
2023/02/16 11:42:17;;;;;;;131.40;49.95;;;;;;;10.34;100.00;101409.41;5097118;28;19977;-69
2023/02/16 11:44:58;;;;;;;123.88;49.15;;;;;;;10.47;100.00;101416.88;5097293;28;20385;-69
2023/02/16 11:47:28;;;;;;;120.07;49.05;;;;;;;10.41;100.00;101422.97;5098326;28;20024;-69
2023/02/16 11:50:39;;;;;;;122.05;47.92;;;;;;;10.40;100.00;101415.06;5097209;28;20082;-69
2023/02/16 11:53:31;;;;;;;111.18;45.58;;;;;;;10.33;100.00;101413.16;5093987;28;20176;-69
2023/02/16 11:56:23;;;;;;;105.18;44.53;;;;;;;10.16;100.00;101402.66;5098106;28;20055;-69
2023/02/16 11:59:19;;;;;;;105.13;44.50;;;;;;;10.22;100.00;101410.00;5103263;28;20112;-69
2023/02/16 12:02:03;;;;;;;99.60;42.10;;;;;;;10.15;100.00;101398.31;5096936;28;20032;-69
2023/02/16 12:04:57;;;;;;;98.47;42.42;;;;;;;10.25;100.00;101391.66;5097126;28;20112;-69